sensor_id;sensor_type;location;lat;lon;timestamp;pressure;altitude;pressure_sealevel;temperature;humidity
68594;BME280;55563;52.416;13.548;2022-12-07T00:01:33;100919.34;;;2.22;100.00
68594;BME280;55563;52.416;13.548;2022-12-07T00:03:35;100915.13;;;2.14;100.00
68594;BME280;55563;52.416;13.548;2022-12-07T00:05:36;100903.56;;;2.17;100.00
68594;BME280;55563;52.416;13.548;2022-12-07T00:07:36;100905.97;;;2.18;100.00
68594;BME280;55563;52.416;13.548;2022-12-07T00:09:37;100905.16;;;2.11;100.00
68594;BME280;55563;52.416;13.548;2022-12-07T00:11:39;100900.53;;;2.07;100.00
68594;BME280;55563;52.416;13.548;2022-12-07T00:13:40;100898.16;;;2.12;100.00
68594;BME280;55563;52.416;13.548;2022-12-07T00:15:41;100902.75;;;2.10;100.00
68594;BME280;55563;52.416;13.548;2022-12-07T00:17:42;100901.75;;;2.04;100.00
68594;BME280;55563;52.416;13.548;2022-12-07T00:19:42;100899.56;;;2.01;100.00
68594;BME280;55563;52.416;13.548;2022-12-07T00:21:43;100895.38;;;2.00;100.00
68594;BME280;55563;52.416;13.548;2022-12-07T00:23:45;100898.13;;;1.99;100.00
68594;BME280;55563;52.416;13.548;2022-12-07T00:25:45;100901.31;;;1.94;100.00
68594;BME280;55563;52.416;13.548;2022-12-07T00:27:48;100892.75;;;1.94;100.00
68594;BME280;55563;52.416;13.548;2022-12-07T00:29:48;100889.97;;;1.95;100.00
68594;BME280;55563;52.416;13.548;2022-12-07T00:31:49;100887.56;;;1.94;100.00
68594;BME280;55563;52.416;13.548;2022-12-07T00:33:50;100890.72;;;1.83;100.00
68594;BME280;55563;52.416;13.548;2022-12-07T00:35:58;100895.72;;;1.84;100.00
68594;BME280;55563;52.416;13.548;2022-12-07T00:37:59;100889.53;;;1.85;100.00
68594;BME280;55563;52.416;13.548;2022-12-07T00:40:00;100886.09;;;1.71;100.00
68594;BME280;55563;52.416;13.548;2022-12-07T00:42:01;100888.28;;;1.74;100.00
68594;BME280;55563;52.416;13.548;2022-12-07T00:44:02;100888.50;;;1.80;100.00
68594;BME280;55563;52.416;13.548;2022-12-07T00:46:02;100875.53;;;1.73;100.00
68594;BME280;55563;52.416;13.548;2022-12-07T00:48:03;100875.53;;;1.73;100.00
68594;BME280;55563;52.416;13.548;2022-12-07T00:50:04;100877.75;;;1.76;100.00
68594;BME280;55563;52.416;13.548;2022-12-07T00:52:05;100869.00;;;1.77;100.00
68594;BME280;55563;52.416;13.548;2022-12-07T00:54:06;100874.16;;;1.77;100.00
68594;BME280;55563;52.416;13.548;2022-12-07T00:56:08;100877.31;;;1.66;100.00
68594;BME280;55563;52.416;13.548;2022-12-07T00:58:09;100876.69;;;1.64;100.00
68594;BME280;55563;52.416;13.548;2022-12-07T01:00:10;100867.53;;;1.61;100.00
68594;BME280;55563;52.416;13.548;2022-12-07T01:02:11;100867.91;;;1.58;100.00
68594;BME280;55563;52.416;13.548;2022-12-07T01:04:12;100861.28;;;1.43;100.00
68594;BME280;55563;52.416;13.548;2022-12-07T01:06:15;100860.84;;;1.39;100.00
68594;BME280;55563;52.416;13.548;2022-12-07T01:08:16;100863.00;;;1.29;100.00
68594;BME280;55563;52.416;13.548;2022-12-07T01:10:17;100859.63;;;1.28;100.00
68594;BME280;55563;52.416;13.548;2022-12-07T01:12:18;100864.75;;;1.22;100.00
68594;BME280;55563;52.416;13.548;2022-12-07T01:14:18;100862.56;;;1.19;100.00
68594;BME280;55563;52.416;13.548;2022-12-07T01:16:21;100864.72;;;1.15;100.00
68594;BME280;55563;52.416;13.548;2022-12-07T01:18:22;100867.34;;;1.22;100.00
68594;BME280;55563;52.416;13.548;2022-12-07T01:20:22;100856.94;;;1.15;100.00
68594;BME280;55563;52.416;13.548;2022-12-07T01:22:23;100861.56;;;1.20;100.00
68594;BME280;55563;52.416;13.548;2022-12-07T01:24:23;100852.00;;;1.20;100.00
68594;BME280;55563;52.416;13.548;2022-12-07T01:26:25;100857.56;;;1.17;100.00
68594;BME280;55563;52.416;13.548;2022-12-07T01:28:27;100846.22;;;1.18;100.00
68594;BME280;55563;52.416;13.548;2022-12-07T01:30:27;100849.63;;;1.25;100.00
68594;BME280;55563;52.416;13.548;2022-12-07T01:32:29;100849.84;;;1.24;100.00
68594;BME280;55563;52.416;13.548;2022-12-07T01:34:29;100843.25;;;1.21;100.00
68594;BME280;55563;52.416;13.548;2022-12-07T01:36:32;100845.88;;;1.28;100.00
68594;BME280;55563;52.416;13.548;2022-12-07T01:38:33;100840.31;;;1.31;100.00
68594;BME280;55563;52.416;13.548;2022-12-07T01:40:34;100842.09;;;1.30;100.00
68594;BME280;55563;52.416;13.548;2022-12-07T01:42:35;100832.94;;;1.35;100.00
68594;BME280;55563;52.416;13.548;2022-12-07T01:45:20;100840.31;;;1.31;100.00
68594;BME280;55563;52.416;13.548;2022-12-07T01:47:16;100822.53;;;1.21;100.00
68594;BME280;55563;52.416;13.548;2022-12-07T01:49:26;100829.13;;;1.24;100.00
68594;BME280;55563;52.416;13.548;2022-12-07T01:51:28;100834.72;;;1.27;100.00
68594;BME280;55563;52.416;13.548;2022-12-07T01:53:30;100826.34;;;1.25;100.00
68594;BME280;55563;52.416;13.548;2022-12-07T01:55:34;100823.97;;;1.30;100.00
68594;BME280;55563;52.416;13.548;2022-12-07T01:57:40;100824.59;;;1.33;100.00
68594;BME280;55563;52.416;13.548;2022-12-07T01:59:43;100826.53;;;1.24;100.00
68594;BME280;55563;52.416;13.548;2022-12-07T02:01:45;100812.56;;;1.18;100.00
68594;BME280;55563;52.416;13.548;2022-12-07T02:03:46;100813.97;;;1.14;100.00
68594;BME280;55563;52.416;13.548;2022-12-07T02:05:48;100811.25;;;1.29;100.00
68594;BME280;55563;52.416;13.548;2022-12-07T02:07:49;100811.19;;;1.22;100.00
68594;BME280;55563;52.416;13.548;2022-12-07T02:09:51;100810.00;;;1.25;100.00
68594;BME280;55563;52.416;13.548;2022-12-07T02:11:52;100810.22;;;1.30;100.00
68594;BME280;55563;52.416;13.548;2022-12-07T02:13:54;100812.59;;;1.25;100.00
68594;BME280;55563;52.416;13.548;2022-12-07T02:21:12;100811.59;;;1.26;100.00
68594;BME280;55563;52.416;13.548;2022-12-07T02:23:35;100811.59;;;1.19;100.00
68594;BME280;55563;52.416;13.548;2022-12-07T02:26:19;100807.41;;;1.18;100.00
68594;BME280;55563;52.416;13.548;2022-12-07T02:28:37;100808.97;;;1.13;100.00
68594;BME280;55563;52.416;13.548;2022-12-07T02:30:42;100804.59;;;1.13;100.00
68594;BME280;55563;52.416;13.548;2022-12-07T02:33:08;100801.97;;;1.07;100.00
68594;BME280;55563;52.416;13.548;2022-12-07T02:35:18;100801.16;;;1.06;100.00
68594;BME280;55563;52.416;13.548;2022-12-07T02:39:49;100796.19;;;1.05;100.00
68594;BME280;55563;52.416;13.548;2022-12-07T02:41:53;100793.75;;;0.97;100.00
68594;BME280;55563;52.416;13.548;2022-12-07T02:44:00;100791.72;;;0.92;100.00
68594;BME280;55563;52.416;13.548;2022-12-07T02:46:06;100787.91;;;0.81;100.00
68594;BME280;55563;52.416;13.548;2022-12-07T02:48:10;100781.97;;;0.87;100.00
68594;BME280;55563;52.416;13.548;2022-12-07T02:50:12;100780.34;;;0.86;100.00
68594;BME280;55563;52.416;13.548;2022-12-07T02:52:12;100778.19;;;0.90;100.00
68594;BME280;55563;52.416;13.548;2022-12-07T02:54:15;100778.34;;;0.82;100.00
68594;BME280;55563;52.416;13.548;2022-12-07T02:56:39;100775.19;;;0.86;100.00
68594;BME280;55563;52.416;13.548;2022-12-07T03:01:12;100767.91;;;0.62;100.00
68594;BME280;55563;52.416;13.548;2022-12-07T03:03:15;100769.28;;;0.65;100.00
68594;BME280;55563;52.416;13.548;2022-12-07T03:05:44;100761.50;;;0.58;100.00
68594;BME280;55563;52.416;13.548;2022-12-07T03:10:24;100756.31;;;0.58;100.00
68594;BME280;55563;52.416;13.548;2022-12-07T03:12:32;100754.59;;;0.65;100.00
68594;BME280;55563;52.416;13.548;2022-12-07T03:14:40;100759.72;;;0.59;100.00
68594;BME280;55563;52.416;13.548;2022-12-07T03:16:52;100750.78;;;0.61;100.00
68594;BME280;55563;52.416;13.548;2022-12-07T03:19:07;100758.94;;;0.65;100.00
68594;BME280;55563;52.416;13.548;2022-12-07T03:21:13;100751.59;;;0.68;100.00
68594;BME280;55563;52.416;13.548;2022-12-07T03:23:15;100751.38;;;0.63;100.00
68594;BME280;55563;52.416;13.548;2022-12-07T03:25:17;100746.22;;;0.63;100.00
68594;BME280;55563;52.416;13.548;2022-12-07T03:27:21;100743.84;;;0.68;100.00
68594;BME280;55563;52.416;13.548;2022-12-07T03:29:28;100736.31;;;0.67;100.00
68594;BME280;55563;52.416;13.548;2022-12-07T03:31:32;100729.88;;;0.56;100.00
68594;BME280;55563;52.416;13.548;2022-12-07T03:33:48;100726.66;;;0.54;100.00
68594;BME280;55563;52.416;13.548;2022-12-07T03:35:57;100723.53;;;0.65;100.00
68594;BME280;55563;52.416;13.548;2022-12-07T03:38:10;100715.91;;;0.51;100.00
68594;BME280;55563;52.416;13.548;2022-12-07T03:40:22;100715.69;;;0.46;100.00
68594;BME280;55563;52.416;13.548;2022-12-07T03:42:24;100709.81;;;0.30;100.00
68594;BME280;55563;52.416;13.548;2022-12-07T03:44:26;100710.22;;;0.34;100.00
68594;BME280;55563;52.416;13.548;2022-12-07T03:46:50;100706.44;;;0.30;100.00
68594;BME280;55563;52.416;13.548;2022-12-07T03:51:26;100692.59;;;0.44;100.00
68594;BME280;55563;52.416;13.548;2022-12-07T03:53:35;100686.38;;;0.38;100.00
68594;BME280;55563;52.416;13.548;2022-12-07T03:55:41;100684.44;;;0.40;100.00
68594;BME280;55563;52.416;13.548;2022-12-07T03:57:45;100685.22;;;0.41;100.00
68594;BME280;55563;52.416;13.548;2022-12-07T03:59:48;100682.06;;;0.46;100.00
68594;BME280;55563;52.416;13.548;2022-12-07T04:01:55;100671.69;;;0.39;100.00
68594;BME280;55563;52.416;13.548;2022-12-07T04:03:56;100669.09;;;0.39;100.00
68594;BME280;55563;52.416;13.548;2022-12-07T04:05:56;100664.19;;;0.51;100.00
68594;BME280;55563;52.416;13.548;2022-12-07T04:07:59;100657.97;;;0.38;100.00
68594;BME280;55563;52.416;13.548;2022-12-07T04:09:59;100658.00;;;0.45;100.00
68594;BME280;55563;52.416;13.548;2022-12-07T04:12:00;100653.63;;;0.46;100.00
68594;BME280;55563;52.416;13.548;2022-12-07T04:14:01;100663.22;;;0.58;100.00
68594;BME280;55563;52.416;13.548;2022-12-07T04:16:21;100658.84;;;0.59;100.00
68594;BME280;55563;52.416;13.548;2022-12-07T04:18:22;100662.63;;;0.56;100.00
68594;BME280;55563;52.416;13.548;2022-12-07T04:20:22;100657.69;;;0.61;100.00
68594;BME280;55563;52.416;13.548;2022-12-07T04:22:23;100657.28;;;0.64;100.00
68594;BME280;55563;52.416;13.548;2022-12-07T04:24:24;100661.88;;;0.62;100.00
68594;BME280;55563;52.416;13.548;2022-12-07T04:26:25;100660.69;;;0.65;100.00
68594;BME280;55563;52.416;13.548;2022-12-07T04:28:26;100657.47;;;0.63;100.00
68594;BME280;55563;52.416;13.548;2022-12-07T04:30:26;100648.94;;;0.62;100.00
68594;BME280;55563;52.416;13.548;2022-12-07T04:32:27;100654.88;;;0.63;100.00
68594;BME280;55563;52.416;13.548;2022-12-07T04:34:28;100649.88;;;0.55;100.00
68594;BME280;55563;52.416;13.548;2022-12-07T04:36:28;100650.28;;;0.58;100.00
68594;BME280;55563;52.416;13.548;2022-12-07T04:38:29;100644.91;;;0.53;100.00
68594;BME280;55563;52.416;13.548;2022-12-07T04:40:29;100633.78;;;0.59;100.00
68594;BME280;55563;52.416;13.548;2022-12-07T04:42:30;100638.97;;;0.59;100.00
68594;BME280;55563;52.416;13.548;2022-12-07T04:44:31;100635.78;;;0.57;100.00
68594;BME280;55563;52.416;13.548;2022-12-07T04:46:32;100624.22;;;0.47;100.00
68594;BME280;55563;52.416;13.548;2022-12-07T04:48:32;100627.59;;;0.54;100.00
68594;BME280;55563;52.416;13.548;2022-12-07T04:50:35;100631.97;;;0.53;100.00
68594;BME280;55563;52.416;13.548;2022-12-07T04:52:35;100622.06;;;0.57;100.00
68594;BME280;55563;52.416;13.548;2022-12-07T04:54:36;100625.81;;;0.54;100.00
68594;BME280;55563;52.416;13.548;2022-12-07T04:56:37;100625.25;;;0.59;100.00
68594;BME280;55563;52.416;13.548;2022-12-07T04:58:38;100621.84;;;0.58;100.00
68594;BME280;55563;52.416;13.548;2022-12-07T05:00:39;100614.53;;;0.62;100.00
68594;BME280;55563;52.416;13.548;2022-12-07T05:02:40;100612.72;;;0.56;100.00
68594;BME280;55563;52.416;13.548;2022-12-07T05:04:40;100604.34;;;0.54;100.00
68594;BME280;55563;52.416;13.548;2022-12-07T05:06:41;100609.50;;;0.54;100.00
68594;BME280;55563;52.416;13.548;2022-12-07T05:08:42;100602.31;;;0.49;100.00
68594;BME280;55563;52.416;13.548;2022-12-07T05:10:43;100611.72;;;0.57;100.00
68594;BME280;55563;52.416;13.548;2022-12-07T05:12:44;100613.50;;;0.63;100.00
68594;BME280;55563;52.416;13.548;2022-12-07T05:14:46;100604.59;;;0.65;100.00
68594;BME280;55563;52.416;13.548;2022-12-07T05:16:48;100613.72;;;0.68;100.00
68594;BME280;55563;52.416;13.548;2022-12-07T05:18:49;100608.78;;;0.66;100.00
68594;BME280;55563;52.416;13.548;2022-12-07T05:20:50;100604.00;;;0.70;100.00
68594;BME280;55563;52.416;13.548;2022-12-07T05:22:51;100612.38;;;0.72;100.00
68594;BME280;55563;52.416;13.548;2022-12-07T05:24:52;100602.81;;;0.72;100.00
68594;BME280;55563;52.416;13.548;2022-12-07T05:26:53;100599.22;;;0.73;100.00
68594;BME280;55563;52.416;13.548;2022-12-07T05:28:54;100597.66;;;0.79;100.00
68594;BME280;55563;52.416;13.548;2022-12-07T05:30:56;100593.47;;;0.78;100.00
68594;BME280;55563;52.416;13.548;2022-12-07T05:32:57;100603.81;;;0.78;100.00
68594;BME280;55563;52.416;13.548;2022-12-07T05:34:57;100597.47;;;0.80;100.00
68594;BME280;55563;52.416;13.548;2022-12-07T05:36:58;100597.84;;;0.77;100.00
68594;BME280;55563;52.416;13.548;2022-12-07T05:38:58;100584.13;;;0.83;100.00
68594;BME280;55563;52.416;13.548;2022-12-07T05:41:01;100600.47;;;0.84;100.00
68594;BME280;55563;52.416;13.548;2022-12-07T05:43:01;100588.13;;;0.86;100.00
68594;BME280;55563;52.416;13.548;2022-12-07T05:45:03;100595.09;;;0.85;100.00
68594;BME280;55563;52.416;13.548;2022-12-07T05:47:03;100586.31;;;0.86;100.00
68594;BME280;55563;52.416;13.548;2022-12-07T05:49:04;100589.13;;;0.85;100.00
68594;BME280;55563;52.416;13.548;2022-12-07T05:51:05;100584.94;;;0.84;100.00
68594;BME280;55563;52.416;13.548;2022-12-07T05:53:05;100583.34;;;0.90;100.00
68594;BME280;55563;52.416;13.548;2022-12-07T05:55:06;100582.16;;;0.92;100.00
68594;BME280;55563;52.416;13.548;2022-12-07T05:57:07;100575.59;;;0.96;100.00
68594;BME280;55563;52.416;13.548;2022-12-07T05:59:09;100580.97;;;0.95;100.00
68594;BME280;55563;52.416;13.548;2022-12-07T06:01:26;100580.75;;;0.96;100.00
68594;BME280;55563;52.416;13.548;2022-12-07T06:03:26;100577.63;;;1.01;100.00
68594;BME280;55563;52.416;13.548;2022-12-07T06:05:27;100577.63;;;1.01;100.00
68594;BME280;55563;52.416;13.548;2022-12-07T06:07:28;100575.44;;;1.04;100.00
68594;BME280;55563;52.416;13.548;2022-12-07T06:09:28;100572.63;;;1.06;100.00
68594;BME280;55563;52.416;13.548;2022-12-07T06:11:29;100564.84;;;1.06;100.00
68594;BME280;55563;52.416;13.548;2022-12-07T06:13:50;100567.88;;;1.09;100.00
68594;BME280;55563;52.416;13.548;2022-12-07T06:15:50;100558.91;;;1.05;100.00
68594;BME280;55563;52.416;13.548;2022-12-07T06:17:51;100559.31;;;1.09;100.00
68594;BME280;55563;52.416;13.548;2022-12-07T06:19:51;100549.53;;;1.11;100.00
68594;BME280;55563;52.416;13.548;2022-12-07T06:21:52;100549.94;;;1.14;100.00
68594;BME280;55563;52.416;13.548;2022-12-07T06:23:53;100546.78;;;1.19;100.00
68594;BME280;55563;52.416;13.548;2022-12-07T06:25:54;100549.34;;;1.19;100.00
68594;BME280;55563;52.416;13.548;2022-12-07T06:27:55;100539.81;;;1.19;100.00
68594;BME280;55563;52.416;13.548;2022-12-07T06:29:55;100545.56;;;1.21;100.00
68594;BME280;55563;52.416;13.548;2022-12-07T06:31:56;100542.59;;;1.24;100.00
68594;BME280;55563;52.416;13.548;2022-12-07T06:33:59;100546.16;;;1.23;100.00
68594;BME280;55563;52.416;13.548;2022-12-07T06:36:00;100542.59;;;1.24;100.00
68594;BME280;55563;52.416;13.548;2022-12-07T06:38:01;100538.19;;;1.25;100.00
68594;BME280;55563;52.416;13.548;2022-12-07T06:40:02;100540.00;;;1.24;100.00
68594;BME280;55563;52.416;13.548;2022-12-07T06:42:03;100541.56;;;1.25;100.00
68594;BME280;55563;52.416;13.548;2022-12-07T06:44:04;100533.00;;;1.25;100.00
68594;BME280;55563;52.416;13.548;2022-12-07T06:46:06;100549.75;;;1.29;100.00
68594;BME280;55563;52.416;13.548;2022-12-07T06:48:06;100537.63;;;1.29;100.00
68594;BME280;55563;52.416;13.548;2022-12-07T06:50:07;100540.78;;;1.31;100.00
68594;BME280;55563;52.416;13.548;2022-12-07T06:52:08;100531.03;;;1.34;100.00
68594;BME280;55563;52.416;13.548;2022-12-07T06:54:10;100542.97;;;1.35;100.00
68594;BME280;55563;52.416;13.548;2022-12-07T06:56:11;100541.59;;;1.39;100.00
68594;BME280;55563;52.416;13.548;2022-12-07T06:58:11;100535.41;;;1.40;100.00
68594;BME280;55563;52.416;13.548;2022-12-07T07:00:12;100544.75;;;1.41;100.00
68594;BME280;55563;52.416;13.548;2022-12-07T07:02:13;100541.78;;;1.44;100.00
68594;BME280;55563;52.416;13.548;2022-12-07T07:04:14;100538.19;;;1.45;100.00
68594;BME280;55563;52.416;13.548;2022-12-07T07:06:14;100534.78;;;1.44;100.00
68594;BME280;55563;52.416;13.548;2022-12-07T07:08:15;100540.38;;;1.48;100.00
68594;BME280;55563;52.416;13.548;2022-12-07T07:10:16;100540.16;;;1.49;100.00
68594;BME280;55563;52.416;13.548;2022-12-07T07:12:17;100535.59;;;1.51;100.00
68594;BME280;55563;52.416;13.548;2022-12-07T07:14:17;100536.19;;;1.53;100.00
68594;BME280;55563;52.416;13.548;2022-12-07T07:16:19;100535.97;;;1.55;100.00
68594;BME280;55563;52.416;13.548;2022-12-07T07:18:20;100534.00;;;1.57;100.00
68594;BME280;55563;52.416;13.548;2022-12-07T07:20:21;100544.13;;;1.58;100.00
68594;BME280;55563;52.416;13.548;2022-12-07T07:22:22;100537.78;;;1.61;100.00
68594;BME280;55563;52.416;13.548;2022-12-07T07:24:23;100543.56;;;1.63;100.00
68594;BME280;55563;52.416;13.548;2022-12-07T07:26:23;100530.19;;;1.66;100.00
68594;BME280;55563;52.416;13.548;2022-12-07T07:28:24;100534.97;;;1.69;100.00
68594;BME280;55563;52.416;13.548;2022-12-07T07:30:25;100532.78;;;1.72;100.00
68594;BME280;55563;52.416;13.548;2022-12-07T07:32:26;100529.97;;;1.74;100.00
68594;BME280;55563;52.416;13.548;2022-12-07T07:34:26;100533.72;;;1.78;100.00
68594;BME280;55563;52.416;13.548;2022-12-07T07:36:27;100530.75;;;1.81;100.00
68594;BME280;55563;52.416;13.548;2022-12-07T07:38:28;100529.75;;;1.82;100.00
68594;BME280;55563;52.416;13.548;2022-12-07T07:40:29;100533.53;;;1.86;100.00
68594;BME280;55563;52.416;13.548;2022-12-07T07:42:29;100540.88;;;1.89;100.00
68594;BME280;55563;52.416;13.548;2022-12-07T07:44:30;100535.28;;;1.92;100.00
68594;BME280;55563;52.416;13.548;2022-12-07T07:46:31;100535.69;;;1.96;100.00
68594;BME280;55563;52.416;13.548;2022-12-07T07:48:33;100537.50;;;1.95;100.00
68594;BME280;55563;52.416;13.548;2022-12-07T07:50:34;100539.66;;;1.98;100.00
68594;BME280;55563;52.416;13.548;2022-12-07T07:52:35;100540.47;;;1.99;100.00
68594;BME280;55563;52.416;13.548;2022-12-07T07:54:35;100530.69;;;2.01;100.00
68594;BME280;55563;52.416;13.548;2022-12-07T07:56:36;100534.25;;;2.06;100.00
68594;BME280;55563;52.416;13.548;2022-12-07T07:58:36;100537.25;;;2.10;100.00
68594;BME280;55563;52.416;13.548;2022-12-07T08:00:39;100537.81;;;2.12;100.00
68594;BME280;55563;52.416;13.548;2022-12-07T08:02:41;100535.84;;;2.14;100.00
68594;BME280;55563;52.416;13.548;2022-12-07T08:04:43;100525.84;;;2.17;100.00
68594;BME280;55563;52.416;13.548;2022-12-07T08:06:44;100533.22;;;2.21;100.00
68594;BME280;55563;52.416;13.548;2022-12-07T08:08:45;100537.75;;;2.32;100.00
68594;BME280;55563;52.416;13.548;2022-12-07T08:10:45;100530.97;;;2.31;100.00
68594;BME280;55563;52.416;13.548;2022-12-07T08:12:46;100533.97;;;2.34;100.00
68594;BME280;55563;52.416;13.548;2022-12-07T08:15:07;100531.75;;;2.38;100.00
68594;BME280;55563;52.416;13.548;2022-12-07T08:17:08;100544.50;;;2.39;100.00
68594;BME280;55563;52.416;13.548;2022-12-07T08:19:08;100541.13;;;2.39;100.00
68594;BME280;55563;52.416;13.548;2022-12-07T08:21:11;100551.88;;;2.42;100.00
68594;BME280;55563;52.416;13.548;2022-12-07T08:23:12;100553.66;;;2.42;100.00
68594;BME280;55563;52.416;13.548;2022-12-07T08:25:13;100544.69;;;2.44;100.00
68594;BME280;55563;52.416;13.548;2022-12-07T08:27:13;100545.25;;;2.46;100.00
68594;BME280;55563;52.416;13.548;2022-12-07T08:29:14;100544.47;;;2.46;100.00
68594;BME280;55563;52.416;13.548;2022-12-07T08:31:16;100541.66;;;2.47;100.00
68594;BME280;55563;52.416;13.548;2022-12-07T08:33:17;100538.88;;;2.49;100.00
68594;BME280;55563;52.416;13.548;2022-12-07T08:35:18;100547.22;;;2.51;100.00
68594;BME280;55563;52.416;13.548;2022-12-07T08:37:19;100548.41;;;2.55;100.00
68594;BME280;55563;52.416;13.548;2022-12-07T08:39:20;100547.59;;;2.54;100.00
68594;BME280;55563;52.416;13.548;2022-12-07T08:41:20;100561.78;;;2.58;100.00
68594;BME280;55563;52.416;13.548;2022-12-07T08:43:21;100544.81;;;2.56;100.00
68594;BME280;55563;52.416;13.548;2022-12-07T08:45:22;100555.56;;;2.59;100.00
68594;BME280;55563;52.416;13.548;2022-12-07T08:47:24;100517.44;;;2.60;100.00
68594;BME280;55563;52.416;13.548;2022-12-07T08:49:28;100550.34;;;2.66;100.00
68594;BME280;55563;52.416;13.548;2022-12-07T08:51:32;100545.97;;;2.67;100.00
68594;BME280;55563;52.416;13.548;2022-12-07T08:53:33;100540.97;;;2.65;100.00
68594;BME280;55563;52.416;13.548;2022-12-07T08:55:35;100551.72;;;2.69;100.00
68594;BME280;55563;52.416;13.548;2022-12-07T08:57:36;100554.09;;;2.70;100.00
68594;BME280;55563;52.416;13.548;2022-12-07T08:59:37;100559.31;;;2.70;100.00
68594;BME280;55563;52.416;13.548;2022-12-07T09:01:38;100548.13;;;2.70;100.00
68594;BME280;55563;52.416;13.548;2022-12-07T09:03:38;100552.31;;;2.71;100.00
68594;BME280;55563;52.416;13.548;2022-12-07T09:05:39;100553.31;;;2.70;100.00
68594;BME280;55563;52.416;13.548;2022-12-07T09:07:41;100561.50;;;2.73;100.00
68594;BME280;55563;52.416;13.548;2022-12-07T09:09:43;100556.06;;;2.75;100.00
68594;BME280;55563;52.416;13.548;2022-12-07T09:11:44;100564.28;;;2.72;100.00
68594;BME280;55563;52.416;13.548;2022-12-07T09:13:45;100560.28;;;2.76;100.00
68594;BME280;55563;52.416;13.548;2022-12-07T09:15:46;100566.06;;;2.78;100.00
68594;BME280;55563;52.416;13.548;2022-12-07T09:17:46;100563.06;;;2.74;100.00
68594;BME280;55563;52.416;13.548;2022-12-07T09:19:47;100567.69;;;2.72;100.00
68594;BME280;55563;52.416;13.548;2022-12-07T09:21:48;100560.28;;;2.69;100.00
68594;BME280;55563;52.416;13.548;2022-12-07T09:23:48;100569.47;;;2.72;100.00
68594;BME280;55563;52.416;13.548;2022-12-07T09:25:49;100576.28;;;2.73;100.00
68594;BME280;55563;52.416;13.548;2022-12-07T09:27:55;100573.66;;;2.73;100.00
68594;BME280;55563;52.416;13.548;2022-12-07T09:29:56;100575.25;;;2.74;100.00
68594;BME280;55563;52.416;13.548;2022-12-07T09:31:56;100570.28;;;2.72;100.00
68594;BME280;55563;52.416;13.548;2022-12-07T09:33:59;100568.84;;;2.76;100.00
68594;BME280;55563;52.416;13.548;2022-12-07T09:36:00;100572.00;;;2.85;100.00
68594;BME280;55563;52.416;13.548;2022-12-07T09:38:01;100567.22;;;2.82;100.00
68594;BME280;55563;52.416;13.548;2022-12-07T09:40:02;100567.84;;;2.77;100.00
68594;BME280;55563;52.416;13.548;2022-12-07T09:42:04;100572.44;;;2.75;100.00
68594;BME280;55563;52.416;13.548;2022-12-07T09:44:10;100579.22;;;2.76;100.00
68594;BME280;55563;52.416;13.548;2022-12-07T09:46:15;100581.03;;;2.76;100.00
68594;BME280;55563;52.416;13.548;2022-12-07T09:48:20;100579.03;;;2.78;100.00
68594;BME280;55563;52.416;13.548;2022-12-07T09:50:24;100585.00;;;2.78;100.00
68594;BME280;55563;52.416;13.548;2022-12-07T09:52:28;100577.06;;;2.73;100.00
68594;BME280;55563;52.416;13.548;2022-12-07T09:54:29;100588.38;;;2.79;100.00
68594;BME280;55563;52.416;13.548;2022-12-07T09:56:31;100593.41;;;2.74;100.00
68594;BME280;55563;52.416;13.548;2022-12-07T09:58:33;100592.22;;;2.70;100.00
68594;BME280;55563;52.416;13.548;2022-12-07T10:00:33;100591.59;;;2.74;100.00
68594;BME280;55563;52.416;13.548;2022-12-07T10:02:37;100591.84;;;2.66;100.00
68594;BME280;55563;52.416;13.548;2022-12-07T10:04:46;100599.03;;;2.64;100.00
68594;BME280;55563;52.416;13.548;2022-12-07T10:06:47;100598.66;;;2.67;100.00
68594;BME280;55563;52.416;13.548;2022-12-07T10:08:48;100597.00;;;3.11;100.00
68594;BME280;55563;52.416;13.548;2022-12-07T10:10:52;100601.56;;;3.15;100.00
68594;BME280;55563;52.416;13.548;2022-12-07T10:13:00;100600.13;;;3.19;100.00
68594;BME280;55563;52.416;13.548;2022-12-07T10:15:03;100593.16;;;3.13;100.00
68594;BME280;55563;52.416;13.548;2022-12-07T10:17:39;100583.53;;;2.89;100.00
68594;BME280;55563;52.416;13.548;2022-12-07T10:19:41;100597.19;;;2.78;100.00
68594;BME280;55563;52.416;13.548;2022-12-07T10:22:04;100593.00;;;2.77;100.00
68594;BME280;55563;52.416;13.548;2022-12-07T10:24:14;100598.19;;;2.77;100.00
68594;BME280;55563;52.416;13.548;2022-12-07T10:26:21;100591.59;;;2.74;100.00
68594;BME280;55563;52.416;13.548;2022-12-07T10:28:34;100596.00;;;2.74;100.00
68594;BME280;55563;52.416;13.548;2022-12-07T10:31:00;100596.44;;;2.71;100.00
68594;BME280;55563;52.416;13.548;2022-12-07T10:33:03;100591.25;;;2.71;100.00
68594;BME280;55563;52.416;13.548;2022-12-07T10:35:29;100602.75;;;2.81;100.00
68594;BME280;55563;52.416;13.548;2022-12-07T10:37:40;100600.72;;;2.90;100.00
68594;BME280;55563;52.416;13.548;2022-12-07T10:39:47;100604.28;;;2.95;100.00
68594;BME280;55563;52.416;13.548;2022-12-07T10:42:03;100590.94;;;2.92;100.00
68594;BME280;55563;52.416;13.548;2022-12-07T10:44:21;100591.94;;;2.91;100.00
68594;BME280;55563;52.416;13.548;2022-12-07T10:46:52;100588.16;;;2.87;100.00
68594;BME280;55563;52.416;13.548;2022-12-07T10:54:13;100579.84;;;2.72;100.00
68594;BME280;55563;52.416;13.548;2022-12-07T11:01:21;100589.59;;;2.83;100.00
68594;BME280;55563;52.416;13.548;2022-12-07T11:06:18;100583.19;;;2.79;100.00